Hovedside
METAR-TAF:

METAR-TAF

Lufthavner :

Sandane lufthamn. Anda

Sandane, Norge

breddegrad: 61-50N, lengdegrad: 006-07E, høyde over havet: 6 m

Gjeldene værobservasjon

Denne rapporten ble laget for 17 minutter siden, klokken 14:20 UTC
Vind 3 kt fra Nordøst, skiftende mellom Nordvest og Øst
Temperatur 17°C
Luftfuktighet 82%
Trykk 1014 hPa
Sikt 10 km eller mer
Få skyer i en høyde av 1100 ft
Spredte skyer i en høyde av 4000 ft
Brutte skyer i en høyde av 7500 ft

METAR: ENSD 181420Z 04003KT 320V100 9999 FEW011 SCT040 BKN075 17/14 Q1014 RMK WIND 1138FT 09004KT

Tid: 16:37 (14:37 UTC)


TAF: fraværende

Værobservasjoner og værvarsel for over 4000 flyplasser (METAR- og TAF-rapporter).

Tilgjengelige stasjoner er representert av de røde og gule prikkene på kartet.

Hold musepekeren over prikken for å se navnet på stasjonen.

Klikk så for å se værobservasjoner og -varsler.

For å forandre kartet kan du klikke på den grønne knappen med svart kryss for å zoome inn, på den grønne knappen med strek for å zoome ut, eller på de grønne pilene for å se tilstøtende kart.


METAR-TAF: